X  Schließen METAR Luftfahrt Wetterdaten     EHAM Amsterdam Airport Schiphol
Temperatur
9°C Temperatur
4°C Taupunkt
71% Feuchtigkeit



Wind
8 M/S
17 MPS
27 KM/S
15 KTS



340°
NNW
Aktuelle Wetterlage

Teilweise bewölkt Teilweise bewölkt
Luftdruck 1023.03 (hPa) - 30.21 (inHg)
Sichtweite 6 (Meile) - 9.7 (Km)
Flughafen
Flughafen Code EHAM

Position : Amsterdam Airport Schiphol
Entfernung: 26 (Km)

Metar:
EHAM 201625Z 34015G28KT 310V020 9999 FEW017 FEW022CB SCT025 09/04 Q1023 NOSIG

Zeit: 20-04-2024 18:25 CEST